sensor_id;sensor_type;location;lat;lon;timestamp;P1;durP1;ratioP1;P2;durP2;ratioP2
19842;SDS011;10082;51.038;6.992;2022-09-28T00:00:26;1.67;;;1.20;;
19842;SDS011;10082;51.038;6.992;2022-09-28T00:02:53;2.43;;;1.27;;
19842;SDS011;10082;51.038;6.992;2022-09-28T00:05:23;2.33;;;1.60;;
19842;SDS011;10082;51.038;6.992;2022-09-28T00:07:51;3.03;;;1.45;;
19842;SDS011;10082;51.038;6.992;2022-09-28T00:10:18;1.50;;;1.40;;
19842;SDS011;10082;51.038;6.992;2022-09-28T00:12:47;3.83;;;2.00;;
19842;SDS011;10082;51.038;6.992;2022-09-28T00:15:14;3.25;;;1.70;;
19842;SDS011;10082;51.038;6.992;2022-09-28T00:17:41;2.53;;;1.60;;
19842;SDS011;10082;51.038;6.992;2022-09-28T00:20:08;1.50;;;1.40;;
19842;SDS011;10082;51.038;6.992;2022-09-28T00:22:37;2.88;;;1.60;;
19842;SDS011;10082;51.038;6.992;2022-09-28T00:25:05;1.63;;;1.50;;
19842;SDS011;10082;51.038;6.992;2022-09-28T00:27:32;1.77;;;1.40;;
19842;SDS011;10082;51.038;6.992;2022-09-28T00:30:00;1.35;;;1.23;;
19842;SDS011;10082;51.038;6.992;2022-09-28T00:32:27;1.20;;;1.10;;
19842;SDS011;10082;51.038;6.992;2022-09-28T00:34:54;1.45;;;1.30;;
19842;SDS011;10082;51.038;6.992;2022-09-28T00:37:21;3.60;;;1.37;;
19842;SDS011;10082;51.038;6.992;2022-09-28T00:39:49;1.45;;;1.30;;
19842;SDS011;10082;51.038;6.992;2022-09-28T00:42:17;3.73;;;1.80;;
19842;SDS011;10082;51.038;6.992;2022-09-28T00:44:46;2.27;;;1.33;;
19842;SDS011;10082;51.038;6.992;2022-09-28T00:47:24;1.70;;;1.27;;
19842;SDS011;10082;51.038;6.992;2022-09-28T00:50:21;1.67;;;1.57;;
19842;SDS011;10082;51.038;6.992;2022-09-28T00:52:52;1.70;;;1.60;;
19842;SDS011;10082;51.038;6.992;2022-09-28T00:55:26;2.30;;;1.60;;
19842;SDS011;10082;51.038;6.992;2022-09-28T00:57:57;2.10;;;1.60;;
19842;SDS011;10082;51.038;6.992;2022-09-28T01:00:27;1.83;;;1.70;;
19842;SDS011;10082;51.038;6.992;2022-09-28T01:02:54;1.57;;;1.47;;
19842;SDS011;10082;51.038;6.992;2022-09-28T01:05:22;1.73;;;1.57;;
19842;SDS011;10082;51.038;6.992;2022-09-28T01:07:50;3.20;;;1.80;;
19842;SDS011;10082;51.038;6.992;2022-09-28T01:10:17;3.13;;;1.80;;
19842;SDS011;10082;51.038;6.992;2022-09-28T01:12:45;1.97;;;1.70;;
19842;SDS011;10082;51.038;6.992;2022-09-28T01:15:12;1.60;;;1.50;;
19842;SDS011;10082;51.038;6.992;2022-09-28T01:17:49;2.17;;;1.90;;
19842;SDS011;10082;51.038;6.992;2022-09-28T01:23:31;2.60;;;1.90;;
19842;SDS011;10082;51.038;6.992;2022-09-28T01:29:11;2.00;;;1.80;;
19842;SDS011;10082;51.038;6.992;2022-09-28T01:31:44;1.73;;;1.63;;
19842;SDS011;10082;51.038;6.992;2022-09-28T01:34:14;2.80;;;1.90;;
19842;SDS011;10082;51.038;6.992;2022-09-28T01:36:47;2.22;;;1.88;;
19842;SDS011;10082;51.038;6.992;2022-09-28T01:39:17;2.70;;;2.05;;
19842;SDS011;10082;51.038;6.992;2022-09-28T01:41:50;3.13;;;2.13;;
19842;SDS011;10082;51.038;6.992;2022-09-28T01:44:23;3.30;;;2.40;;
19842;SDS011;10082;51.038;6.992;2022-09-28T01:46:54;2.47;;;2.17;;
19842;SDS011;10082;51.038;6.992;2022-09-28T01:49:30;3.20;;;2.40;;
19842;SDS011;10082;51.038;6.992;2022-09-28T01:52:03;2.50;;;2.17;;
19842;SDS011;10082;51.038;6.992;2022-09-28T01:54:36;3.87;;;2.33;;
19842;SDS011;10082;51.038;6.992;2022-09-28T01:57:10;3.05;;;2.65;;
19842;SDS011;10082;51.038;6.992;2022-09-28T01:59:46;3.05;;;2.75;;
19842;SDS011;10082;51.038;6.992;2022-09-28T02:02:18;4.53;;;2.27;;
19842;SDS011;10082;51.038;6.992;2022-09-28T02:04:52;4.50;;;2.88;;
19842;SDS011;10082;51.038;6.992;2022-09-28T02:07:24;3.75;;;2.88;;
19842;SDS011;10082;51.038;6.992;2022-09-28T02:09:58;3.07;;;2.77;;
19842;SDS011;10082;51.038;6.992;2022-09-28T02:12:31;3.00;;;2.67;;
19842;SDS011;10082;51.038;6.992;2022-09-28T02:15:05;3.85;;;2.97;;
19842;SDS011;10082;51.038;6.992;2022-09-28T02:17:39;3.53;;;2.47;;
19842;SDS011;10082;51.038;6.992;2022-09-28T02:20:06;3.17;;;2.80;;
19842;SDS011;10082;51.038;6.992;2022-09-28T02:22:35;3.00;;;2.77;;
19842;SDS011;10082;51.038;6.992;2022-09-28T02:25:08;3.97;;;3.10;;
19842;SDS011;10082;51.038;6.992;2022-09-28T02:27:40;3.57;;;3.00;;
19842;SDS011;10082;51.038;6.992;2022-09-28T02:30:11;3.40;;;3.10;;
19842;SDS011;10082;51.038;6.992;2022-09-28T02:32:39;3.77;;;3.40;;
19842;SDS011;10082;51.038;6.992;2022-09-28T02:35:11;3.90;;;3.23;;
19842;SDS011;10082;51.038;6.992;2022-09-28T02:37:39;4.17;;;3.50;;
19842;SDS011;10082;51.038;6.992;2022-09-28T02:40:13;4.53;;;3.50;;
19842;SDS011;10082;51.038;6.992;2022-09-28T02:42:45;4.20;;;3.80;;
19842;SDS011;10082;51.038;6.992;2022-09-28T02:45:26;4.30;;;3.67;;
19842;SDS011;10082;51.038;6.992;2022-09-28T02:48:07;5.60;;;4.00;;
19842;SDS011;10082;51.038;6.992;2022-09-28T02:50:45;5.20;;;4.40;;
19842;SDS011;10082;51.038;6.992;2022-09-28T02:53:25;4.10;;;3.70;;
19842;SDS011;10082;51.038;6.992;2022-09-28T02:56:15;4.85;;;4.45;;
19842;SDS011;10082;51.038;6.992;2022-09-28T02:58:54;8.02;;;4.60;;
19842;SDS011;10082;51.038;6.992;2022-09-28T03:01:30;5.10;;;4.50;;
19842;SDS011;10082;51.038;6.992;2022-09-28T03:04:04;6.47;;;4.80;;
19842;SDS011;10082;51.038;6.992;2022-09-28T03:06:38;5.25;;;4.75;;
19842;SDS011;10082;51.038;6.992;2022-09-28T03:09:11;5.50;;;4.95;;
19842;SDS011;10082;51.038;6.992;2022-09-28T03:11:45;6.30;;;5.70;;
19842;SDS011;10082;51.038;6.992;2022-09-28T03:14:16;6.40;;;5.80;;
19842;SDS011;10082;51.038;6.992;2022-09-28T03:16:49;6.17;;;5.57;;
19842;SDS011;10082;51.038;6.992;2022-09-28T03:19:18;6.50;;;5.83;;
19842;SDS011;10082;51.038;6.992;2022-09-28T03:21:49;6.87;;;6.13;;
19842;SDS011;10082;51.038;6.992;2022-09-28T03:24:16;6.70;;;5.77;;
19842;SDS011;10082;51.038;6.992;2022-09-28T03:26:43;6.00;;;5.45;;
19842;SDS011;10082;51.038;6.992;2022-09-28T03:29:11;7.03;;;5.80;;
19842;SDS011;10082;51.038;6.992;2022-09-28T03:31:40;6.07;;;5.57;;
19842;SDS011;10082;51.038;6.992;2022-09-28T03:34:08;6.60;;;5.90;;
19842;SDS011;10082;51.038;6.992;2022-09-28T03:36:35;9.00;;;6.43;;
19842;SDS011;10082;51.038;6.992;2022-09-28T03:39:02;7.57;;;6.05;;
19842;SDS011;10082;51.038;6.992;2022-09-28T03:41:29;7.63;;;6.83;;
19842;SDS011;10082;51.038;6.992;2022-09-28T03:43:56;7.30;;;6.60;;
19842;SDS011;10082;51.038;6.992;2022-09-28T03:46:25;8.17;;;6.93;;
19842;SDS011;10082;51.038;6.992;2022-09-28T03:48:57;7.30;;;6.60;;
19842;SDS011;10082;51.038;6.992;2022-09-28T03:51:24;8.10;;;7.30;;
19842;SDS011;10082;51.038;6.992;2022-09-28T03:53:52;9.73;;;7.67;;
19842;SDS011;10082;51.038;6.992;2022-09-28T03:56:19;9.00;;;7.82;;
19842;SDS011;10082;51.038;6.992;2022-09-28T03:58:46;10.07;;;9.07;;
19842;SDS011;10082;51.038;6.992;2022-09-28T04:01:13;10.13;;;9.20;;
19842;SDS011;10082;51.038;6.992;2022-09-28T04:03:41;12.30;;;10.50;;
19842;SDS011;10082;51.038;6.992;2022-09-28T04:06:10;11.13;;;9.97;;
19842;SDS011;10082;51.038;6.992;2022-09-28T04:08:37;12.07;;;10.88;;
19842;SDS011;10082;51.038;6.992;2022-09-28T04:11:05;13.27;;;12.00;;
19842;SDS011;10082;51.038;6.992;2022-09-28T04:13:32;13.20;;;12.00;;
19842;SDS011;10082;51.038;6.992;2022-09-28T04:15:59;13.50;;;12.20;;
19842;SDS011;10082;51.038;6.992;2022-09-28T04:18:30;13.13;;;11.87;;
19842;SDS011;10082;51.038;6.992;2022-09-28T04:21:14;13.23;;;12.00;;
19842;SDS011;10082;51.038;6.992;2022-09-28T04:23:46;14.15;;;12.65;;
19842;SDS011;10082;51.038;6.992;2022-09-28T04:26:14;13.53;;;12.13;;
19842;SDS011;10082;51.038;6.992;2022-09-28T04:28:43;13.15;;;11.85;;
19842;SDS011;10082;51.038;6.992;2022-09-28T04:31:27;13.67;;;12.37;;
19842;SDS011;10082;51.038;6.992;2022-09-28T04:33:55;12.67;;;11.47;;
19842;SDS011;10082;51.038;6.992;2022-09-28T04:36:23;12.73;;;11.43;;
19842;SDS011;10082;51.038;6.992;2022-09-28T04:38:50;12.93;;;11.73;;
19842;SDS011;10082;51.038;6.992;2022-09-28T04:41:18;15.40;;;13.93;;
19842;SDS011;10082;51.038;6.992;2022-09-28T04:43:48;15.07;;;13.57;;
19842;SDS011;10082;51.038;6.992;2022-09-28T04:46:15;17.38;;;15.57;;
19842;SDS011;10082;51.038;6.992;2022-09-28T04:48:52;17.27;;;15.60;;
19842;SDS011;10082;51.038;6.992;2022-09-28T04:51:44;18.38;;;16.63;;
19842;SDS011;10082;51.038;6.992;2022-09-28T04:54:11;19.93;;;17.93;;
19842;SDS011;10082;51.038;6.992;2022-09-28T04:56:39;18.75;;;16.98;;
19842;SDS011;10082;51.038;6.992;2022-09-28T04:59:06;18.52;;;16.73;;
19842;SDS011;10082;51.038;6.992;2022-09-28T05:01:35;19.27;;;17.38;;
19842;SDS011;10082;51.038;6.992;2022-09-28T05:04:34;18.50;;;16.80;;
19842;SDS011;10082;51.038;6.992;2022-09-28T05:07:21;18.77;;;16.98;;
19842;SDS011;10082;51.038;6.992;2022-09-28T05:09:48;17.57;;;16.07;;
19842;SDS011;10082;51.038;6.992;2022-09-28T05:12:15;17.90;;;16.30;;
19842;SDS011;10082;51.038;6.992;2022-09-28T05:14:42;18.98;;;17.17;;
19842;SDS011;10082;51.038;6.992;2022-09-28T05:17:09;18.13;;;16.52;;
19842;SDS011;10082;51.038;6.992;2022-09-28T05:19:52;17.92;;;16.23;;
19842;SDS011;10082;51.038;6.992;2022-09-28T05:22:18;17.63;;;16.00;;
19842;SDS011;10082;51.038;6.992;2022-09-28T05:24:47;16.50;;;15.00;;
19842;SDS011;10082;51.038;6.992;2022-09-28T05:27:14;16.42;;;14.80;;
19842;SDS011;10082;51.038;6.992;2022-09-28T05:29:43;16.75;;;15.07;;
19842;SDS011;10082;51.038;6.992;2022-09-28T05:32:29;15.35;;;14.05;;
19842;SDS011;10082;51.038;6.992;2022-09-28T05:35:20;15.32;;;13.75;;
19842;SDS011;10082;51.038;6.992;2022-09-28T05:37:47;14.63;;;13.13;;
19842;SDS011;10082;51.038;6.992;2022-09-28T05:40:16;14.52;;;13.10;;
19842;SDS011;10082;51.038;6.992;2022-09-28T05:42:43;13.37;;;12.17;;
19842;SDS011;10082;51.038;6.992;2022-09-28T05:45:11;13.77;;;12.57;;
19842;SDS011;10082;51.038;6.992;2022-09-28T05:47:41;13.80;;;12.50;;
19842;SDS011;10082;51.038;6.992;2022-09-28T05:50:12;12.90;;;11.50;;
19842;SDS011;10082;51.038;6.992;2022-09-28T05:52:40;12.93;;;11.73;;
19842;SDS011;10082;51.038;6.992;2022-09-28T05:55:09;12.63;;;11.43;;
19842;SDS011;10082;51.038;6.992;2022-09-28T05:57:37;12.43;;;11.33;;
19842;SDS011;10082;51.038;6.992;2022-09-28T06:00:05;11.68;;;10.68;;
19842;SDS011;10082;51.038;6.992;2022-09-28T06:02:37;11.35;;;10.35;;
19842;SDS011;10082;51.038;6.992;2022-09-28T06:05:06;11.90;;;10.60;;
19842;SDS011;10082;51.038;6.992;2022-09-28T06:07:33;10.87;;;9.87;;
19842;SDS011;10082;51.038;6.992;2022-09-28T06:10:00;10.40;;;9.40;;
19842;SDS011;10082;51.038;6.992;2022-09-28T06:12:51;10.32;;;9.32;;
19842;SDS011;10082;51.038;6.992;2022-09-28T06:15:19;10.52;;;9.50;;
19842;SDS011;10082;51.038;6.992;2022-09-28T06:17:46;10.43;;;9.53;;
19842;SDS011;10082;51.038;6.992;2022-09-28T06:20:39;10.18;;;9.15;;
19842;SDS011;10082;51.038;6.992;2022-09-28T06:23:14;11.30;;;9.88;;
19842;SDS011;10082;51.038;6.992;2022-09-28T06:25:41;12.15;;;9.80;;
19842;SDS011;10082;51.038;6.992;2022-09-28T06:28:10;10.05;;;8.88;;
19842;SDS011;10082;51.038;6.992;2022-09-28T06:30:39;11.13;;;9.07;;
19842;SDS011;10082;51.038;6.992;2022-09-28T06:33:10;9.50;;;8.60;;
19842;SDS011;10082;51.038;6.992;2022-09-28T06:35:39;9.65;;;8.65;;
19842;SDS011;10082;51.038;6.992;2022-09-28T06:38:06;9.65;;;8.65;;
19842;SDS011;10082;51.038;6.992;2022-09-28T06:40:33;10.00;;;9.00;;
19842;SDS011;10082;51.038;6.992;2022-09-28T06:43:01;9.13;;;8.07;;
19842;SDS011;10082;51.038;6.992;2022-09-28T06:45:55;9.40;;;8.63;;
19842;SDS011;10082;51.038;6.992;2022-09-28T06:48:40;8.07;;;7.38;;
19842;SDS011;10082;51.038;6.992;2022-09-28T06:51:11;9.10;;;7.80;;
19842;SDS011;10082;51.038;6.992;2022-09-28T06:53:51;8.98;;;8.13;;
19842;SDS011;10082;51.038;6.992;2022-09-28T06:56:37;8.40;;;7.60;;
19842;SDS011;10082;51.038;6.992;2022-09-28T06:59:04;8.85;;;8.05;;
19842;SDS011;10082;51.038;6.992;2022-09-28T07:01:34;7.65;;;6.95;;
19842;SDS011;10082;51.038;6.992;2022-09-28T07:04:07;9.13;;;7.30;;
19842;SDS011;10082;51.038;6.992;2022-09-28T07:06:54;8.02;;;7.20;;
19842;SDS011;10082;51.038;6.992;2022-09-28T07:09:51;7.75;;;6.95;;
19842;SDS011;10082;51.038;6.992;2022-09-28T07:12:39;7.18;;;6.57;;
19842;SDS011;10082;51.038;6.992;2022-09-28T07:15:27;8.33;;;6.30;;
19842;SDS011;10082;51.038;6.992;2022-09-28T07:17:56;7.13;;;6.43;;
19842;SDS011;10082;51.038;6.992;2022-09-28T07:20:24;7.15;;;6.28;;
19842;SDS011;10082;51.038;6.992;2022-09-28T07:22:52;7.30;;;6.45;;
19842;SDS011;10082;51.038;6.992;2022-09-28T07:25:20;6.70;;;6.03;;
19842;SDS011;10082;51.038;6.992;2022-09-28T07:28:20;5.88;;;5.15;;
19842;SDS011;10082;51.038;6.992;2022-09-28T07:31:06;5.57;;;4.20;;
19842;SDS011;10082;51.038;6.992;2022-09-28T07:33:49;5.30;;;4.80;;
19842;SDS011;10082;51.038;6.992;2022-09-28T07:36:44;5.00;;;4.22;;
19842;SDS011;10082;51.038;6.992;2022-09-28T07:39:11;7.07;;;4.25;;
19842;SDS011;10082;51.038;6.992;2022-09-28T07:41:38;5.63;;;4.30;;
19842;SDS011;10082;51.038;6.992;2022-09-28T07:44:06;5.10;;;3.80;;
19842;SDS011;10082;51.038;6.992;2022-09-28T07:46:34;4.70;;;3.85;;
19842;SDS011;10082;51.038;6.992;2022-09-28T07:49:14;4.00;;;3.63;;
19842;SDS011;10082;51.038;6.992;2022-09-28T07:52:06;4.45;;;3.70;;
19842;SDS011;10082;51.038;6.992;2022-09-28T07:54:55;4.25;;;3.63;;
19842;SDS011;10082;51.038;6.992;2022-09-28T07:57:40;4.22;;;3.45;;
19842;SDS011;10082;51.038;6.992;2022-09-28T08:00:29;7.38;;;3.60;;
19842;SDS011;10082;51.038;6.992;2022-09-28T08:02:57;4.05;;;3.22;;
19842;SDS011;10082;51.038;6.992;2022-09-28T08:05:27;4.90;;;3.13;;
19842;SDS011;10082;51.038;6.992;2022-09-28T08:07:56;4.35;;;2.97;;
19842;SDS011;10082;51.038;6.992;2022-09-28T08:10:25;5.07;;;3.17;;
19842;SDS011;10082;51.038;6.992;2022-09-28T08:13:15;7.13;;;3.38;;
19842;SDS011;10082;51.038;6.992;2022-09-28T08:16:11;3.80;;;2.97;;
19842;SDS011;10082;51.038;6.992;2022-09-28T08:18:47;3.40;;;3.10;;
19842;SDS011;10082;51.038;6.992;2022-09-28T08:21:17;4.22;;;2.92;;
19842;SDS011;10082;51.038;6.992;2022-09-28T08:24:01;3.78;;;3.20;;
19842;SDS011;10082;51.038;6.992;2022-09-28T08:26:28;4.95;;;3.08;;
19842;SDS011;10082;51.038;6.992;2022-09-28T08:28:56;3.92;;;3.20;;
19842;SDS011;10082;51.038;6.992;2022-09-28T08:31:41;3.60;;;2.83;;
19842;SDS011;10082;51.038;6.992;2022-09-28T08:34:38;4.70;;;3.22;;
19842;SDS011;10082;51.038;6.992;2022-09-28T08:37:40;4.43;;;3.35;;
19842;SDS011;10082;51.038;6.992;2022-09-28T08:40:29;4.97;;;3.33;;
19842;SDS011;10082;51.038;6.992;2022-09-28T08:43:26;3.90;;;3.00;;
19842;SDS011;10082;51.038;6.992;2022-09-28T08:46:32;3.78;;;3.17;;
19842;SDS011;10082;51.038;6.992;2022-09-28T08:49:28;4.20;;;3.80;;
19842;SDS011;10082;51.038;6.992;2022-09-28T08:52:25;6.38;;;3.80;;
19842;SDS011;10082;51.038;6.992;2022-09-28T08:55:21;3.95;;;3.63;;
19842;SDS011;10082;51.038;6.992;2022-09-28T08:57:54;3.83;;;3.38;;
19842;SDS011;10082;51.038;6.992;2022-09-28T09:00:29;5.15;;;3.40;;
19842;SDS011;10082;51.038;6.992;2022-09-28T09:03:01;5.13;;;3.53;;
19842;SDS011;10082;51.038;6.992;2022-09-28T09:05:38;4.07;;;2.95;;
19842;SDS011;10082;51.038;6.992;2022-09-28T09:08:38;4.03;;;3.13;;
19842;SDS011;10082;51.038;6.992;2022-09-28T09:11:15;3.13;;;2.83;;
19842;SDS011;10082;51.038;6.992;2022-09-28T09:14:01;3.35;;;3.05;;
19842;SDS011;10082;51.038;6.992;2022-09-28T09:16:43;4.50;;;2.67;;
19842;SDS011;10082;51.038;6.992;2022-09-28T09:19:23;3.30;;;3.00;;
19842;SDS011;10082;51.038;6.992;2022-09-28T09:22:20;3.20;;;2.70;;
19842;SDS011;10082;51.038;6.992;2022-09-28T09:24:59;3.38;;;2.75;;
19842;SDS011;10082;51.038;6.992;2022-09-28T09:27:38;3.10;;;2.55;;
19842;SDS011;10082;51.038;6.992;2022-09-28T09:30:14;3.35;;;3.00;;
19842;SDS011;10082;51.038;6.992;2022-09-28T09:32:51;3.38;;;2.65;;
19842;SDS011;10082;51.038;6.992;2022-09-28T09:36:01;3.45;;;2.50;;
19842;SDS011;10082;51.038;6.992;2022-09-28T09:38:59;3.35;;;2.60;;
19842;SDS011;10082;51.038;6.992;2022-09-28T09:42:13;4.40;;;2.55;;
19842;SDS011;10082;51.038;6.992;2022-09-28T09:45:30;3.55;;;2.45;;
19842;SDS011;10082;51.038;6.992;2022-09-28T09:48:29;3.42;;;2.75;;
19842;SDS011;10082;51.038;6.992;2022-09-28T09:51:03;2.38;;;2.17;;
19842;SDS011;10082;51.038;6.992;2022-09-28T09:53:40;5.22;;;2.70;;
19842;SDS011;10082;51.038;6.992;2022-09-28T09:56:12;5.20;;;3.60;;
19842;SDS011;10082;51.038;6.992;2022-09-28T09:58:57;7.10;;;6.50;;
19842;SDS011;10082;51.038;6.992;2022-09-28T10:01:37;3.28;;;2.30;;
19842;SDS011;10082;51.038;6.992;2022-09-28T10:04:20;1.90;;;1.70;;
19842;SDS011;10082;51.038;6.992;2022-09-28T10:06:56;3.60;;;2.20;;
19842;SDS011;10082;51.038;6.992;2022-09-28T10:09:27;1.83;;;1.65;;
19842;SDS011;10082;51.038;6.992;2022-09-28T10:12:17;2.45;;;1.73;;
19842;SDS011;10082;51.038;6.992;2022-09-28T10:14:45;3.05;;;1.65;;
19842;SDS011;10082;51.038;6.992;2022-09-28T10:17:15;4.15;;;1.42;;
19842;SDS011;10082;51.038;6.992;2022-09-28T10:20:02;2.22;;;1.60;;
19842;SDS011;10082;51.038;6.992;2022-09-28T10:22:33;2.33;;;1.60;;
19842;SDS011;10082;51.038;6.992;2022-09-28T10:25:07;2.38;;;1.60;;
19842;SDS011;10082;51.038;6.992;2022-09-28T10:27:37;2.00;;;1.23;;
19842;SDS011;10082;51.038;6.992;2022-09-28T10:30:13;2.15;;;1.35;;
19842;SDS011;10082;51.038;6.992;2022-09-28T10:32:46;1.63;;;1.52;;
19842;SDS011;10082;51.038;6.992;2022-09-28T10:35:22;2.63;;;1.70;;
19842;SDS011;10082;51.038;6.992;2022-09-28T10:38:02;2.78;;;1.60;;
19842;SDS011;10082;51.038;6.992;2022-09-28T10:40:39;1.85;;;1.45;;
19842;SDS011;10082;51.038;6.992;2022-09-28T10:43:15;2.30;;;1.55;;
19842;SDS011;10082;51.038;6.992;2022-09-28T10:45:46;2.10;;;1.70;;
19842;SDS011;10082;51.038;6.992;2022-09-28T10:48:17;2.72;;;2.10;;
19842;SDS011;10082;51.038;6.992;2022-09-28T10:50:56;3.83;;;1.63;;
19842;SDS011;10082;51.038;6.992;2022-09-28T10:53:25;2.25;;;1.60;;
19842;SDS011;10082;51.038;6.992;2022-09-28T10:56:02;2.45;;;1.52;;
19842;SDS011;10082;51.038;6.992;2022-09-28T10:58:35;1.80;;;1.30;;
19842;SDS011;10082;51.038;6.992;2022-09-28T11:01:08;1.98;;;1.42;;
19842;SDS011;10082;51.038;6.992;2022-09-28T11:03:40;3.08;;;1.42;;
19842;SDS011;10082;51.038;6.992;2022-09-28T11:06:21;3.65;;;1.40;;
19842;SDS011;10082;51.038;6.992;2022-09-28T11:08:50;3.53;;;1.15;;
19842;SDS011;10082;51.038;6.992;2022-09-28T11:11:19;3.53;;;1.20;;
19842;SDS011;10082;51.038;6.992;2022-09-28T11:13:52;1.92;;;1.45;;
19842;SDS011;10082;51.038;6.992;2022-09-28T11:16:25;1.88;;;1.42;;
19842;SDS011;10082;51.038;6.992;2022-09-28T11:18:56;1.85;;;1.52;;
19842;SDS011;10082;51.038;6.992;2022-09-28T11:21:25;1.48;;;1.05;;
19842;SDS011;10082;51.038;6.992;2022-09-28T11:24:00;2.10;;;1.20;;
19842;SDS011;10082;51.038;6.992;2022-09-28T11:26:36;1.67;;;1.13;;
19842;SDS011;10082;51.038;6.992;2022-09-28T11:29:18;5.22;;;1.38;;
19842;SDS011;10082;51.038;6.992;2022-09-28T11:31:58;2.85;;;1.40;;
19842;SDS011;10082;51.038;6.992;2022-09-28T11:34:31;3.80;;;1.40;;
19842;SDS011;10082;51.038;6.992;2022-09-28T11:37:09;1.40;;;1.23;;
19842;SDS011;10082;51.038;6.992;2022-09-28T11:39:53;3.00;;;1.80;;
19842;SDS011;10082;51.038;6.992;2022-09-28T11:42:38;1.75;;;1.15;;
19842;SDS011;10082;51.038;6.992;2022-09-28T11:45:17;4.38;;;1.42;;
19842;SDS011;10082;51.038;6.992;2022-09-28T11:47:57;4.03;;;1.38;;
19842;SDS011;10082;51.038;6.992;2022-09-28T11:50:33;1.98;;;1.23;;
19842;SDS011;10082;51.038;6.992;2022-09-28T11:53:10;4.20;;;1.50;;
19842;SDS011;10082;51.038;6.992;2022-09-28T11:55:45;2.00;;;1.40;;
19842;SDS011;10082;51.038;6.992;2022-09-28T11:58:20;1.63;;;1.42;;
19842;SDS011;10082;51.038;6.992;2022-09-28T12:00:53;3.92;;;1.30;;
19842;SDS011;10082;51.038;6.992;2022-09-28T12:03:38;1.70;;;1.20;;
19842;SDS011;10082;51.038;6.992;2022-09-28T12:06:13;1.45;;;1.10;;
19842;SDS011;10082;51.038;6.992;2022-09-28T12:08:44;1.75;;;1.42;;
19842;SDS011;10082;51.038;6.992;2022-09-28T12:11:32;1.30;;;1.20;;
19842;SDS011;10082;51.038;6.992;2022-09-28T12:14:17;2.10;;;1.20;;
19842;SDS011;10082;51.038;6.992;2022-09-28T12:16:47;2.70;;;1.30;;
19842;SDS011;10082;51.038;6.992;2022-09-28T12:19:20;1.73;;;1.27;;
19842;SDS011;10082;51.038;6.992;2022-09-28T12:21:56;4.15;;;1.50;;
19842;SDS011;10082;51.038;6.992;2022-09-28T12:24:29;1.33;;;1.17;;
19842;SDS011;10082;51.038;6.992;2022-09-28T12:27:02;2.47;;;1.17;;
19842;SDS011;10082;51.038;6.992;2022-09-28T12:29:34;2.10;;;1.33;;
19842;SDS011;10082;51.038;6.992;2022-09-28T12:32:09;2.63;;;1.40;;
19842;SDS011;10082;51.038;6.992;2022-09-28T12:34:40;4.75;;;1.35;;
19842;SDS011;10082;51.038;6.992;2022-09-28T12:37:14;1.90;;;1.30;;
19842;SDS011;10082;51.038;6.992;2022-09-28T12:39:55;2.05;;;1.40;;
19842;SDS011;10082;51.038;6.992;2022-09-28T12:42:50;2.75;;;1.20;;
19842;SDS011;10082;51.038;6.992;2022-09-28T12:45:39;2.95;;;1.25;;
19842;SDS011;10082;51.038;6.992;2022-09-28T12:48:26;1.30;;;1.20;;
19842;SDS011;10082;51.038;6.992;2022-09-28T12:51:17;1.88;;;1.30;;
19842;SDS011;10082;51.038;6.992;2022-09-28T12:54:03;2.83;;;1.67;;
19842;SDS011;10082;51.038;6.992;2022-09-28T12:56:47;2.80;;;1.30;;
19842;SDS011;10082;51.038;6.992;2022-09-28T12:59:25;1.80;;;1.27;;
19842;SDS011;10082;51.038;6.992;2022-09-28T13:02:12;2.13;;;1.60;;
19842;SDS011;10082;51.038;6.992;2022-09-28T13:05:14;1.85;;;1.30;;
19842;SDS011;10082;51.038;6.992;2022-09-28T13:07:48;1.73;;;1.25;;
19842;SDS011;10082;51.038;6.992;2022-09-28T13:10:25;1.92;;;1.20;;
19842;SDS011;10082;51.038;6.992;2022-09-28T13:13:12;2.17;;;1.20;;
19842;SDS011;10082;51.038;6.992;2022-09-28T13:15:48;1.52;;;1.20;;
19842;SDS011;10082;51.038;6.992;2022-09-28T13:18:23;3.15;;;1.20;;
19842;SDS011;10082;51.038;6.992;2022-09-28T13:21:00;1.65;;;1.30;;
19842;SDS011;10082;51.038;6.992;2022-09-28T13:23:33;2.67;;;1.30;;
19842;SDS011;10082;51.038;6.992;2022-09-28T13:26:08;2.10;;;1.20;;
19842;SDS011;10082;51.038;6.992;2022-09-28T13:28:46;3.38;;;1.30;;
19842;SDS011;10082;51.038;6.992;2022-09-28T13:31:17;1.30;;;0.98;;
19842;SDS011;10082;51.038;6.992;2022-09-28T13:33:46;1.88;;;1.15;;
19842;SDS011;10082;51.038;6.992;2022-09-28T13:36:36;2.55;;;0.93;;
19842;SDS011;10082;51.038;6.992;2022-09-28T13:48:15;4.32;;;3.67;;
19842;SDS011;10082;51.038;6.992;2022-09-28T13:53:45;2.10;;;0.80;;
19842;SDS011;10082;51.038;6.992;2022-09-28T13:56:26;2.03;;;0.85;;
19842;SDS011;10082;51.038;6.992;2022-09-28T13:59:07;1.15;;;0.90;;
19842;SDS011;10082;51.038;6.992;2022-09-28T14:01:41;1.45;;;1.00;;
19842;SDS011;10082;51.038;6.992;2022-09-28T14:04:17;1.98;;;1.15;;
19842;SDS011;10082;51.038;6.992;2022-09-28T14:06:48;1.95;;;1.05;;
19842;SDS011;10082;51.038;6.992;2022-09-28T14:09:25;2.53;;;0.90;;
19842;SDS011;10082;51.038;6.992;2022-09-28T14:21:18;1.10;;;0.98;;
19842;SDS011;10082;51.038;6.992;2022-09-28T14:24:20;1.05;;;0.98;;
19842;SDS011;10082;51.038;6.992;2022-09-28T14:27:11;2.17;;;1.25;;
19842;SDS011;10082;51.038;6.992;2022-09-28T14:29:52;1.77;;;1.10;;
19842;SDS011;10082;51.038;6.992;2022-09-28T14:32:32;1.98;;;1.10;;
19842;SDS011;10082;51.038;6.992;2022-09-28T14:35:02;1.92;;;0.90;;
19842;SDS011;10082;51.038;6.992;2022-09-28T14:37:32;1.75;;;1.10;;
19842;SDS011;10082;51.038;6.992;2022-09-28T14:40:19;1.75;;;0.88;;
19842;SDS011;10082;51.038;6.992;2022-09-28T14:43:27;2.25;;;1.10;;
19842;SDS011;10082;51.038;6.992;2022-09-28T14:49:11;3.38;;;1.23;;
19842;SDS011;10082;51.038;6.992;2022-09-28T14:52:16;2.63;;;1.30;;
19842;SDS011;10082;51.038;6.992;2022-09-28T14:55:01;5.82;;;1.60;;
19842;SDS011;10082;51.038;6.992;2022-09-28T14:57:28;1.70;;;1.30;;
19842;SDS011;10082;51.038;6.992;2022-09-28T14:59:56;2.35;;;1.27;;
19842;SDS011;10082;51.038;6.992;2022-09-28T15:02:25;2.20;;;1.30;;
19842;SDS011;10082;51.038;6.992;2022-09-28T15:05:00;1.55;;;1.30;;
19842;SDS011;10082;51.038;6.992;2022-09-28T15:07:42;2.75;;;1.45;;
19842;SDS011;10082;51.038;6.992;2022-09-28T15:10:21;4.38;;;1.00;;
19842;SDS011;10082;51.038;6.992;2022-09-28T15:12:50;2.42;;;1.05;;
19842;SDS011;10082;51.038;6.992;2022-09-28T15:15:23;1.15;;;1.05;;
19842;SDS011;10082;51.038;6.992;2022-09-28T15:17:55;1.27;;;0.95;;
19842;SDS011;10082;51.038;6.992;2022-09-28T15:20:43;4.85;;;2.85;;
19842;SDS011;10082;51.038;6.992;2022-09-28T15:23:22;0.82;;;0.82;;
19842;SDS011;10082;51.038;6.992;2022-09-28T15:25:58;1.60;;;0.88;;
19842;SDS011;10082;51.038;6.992;2022-09-28T15:28:26;4.65;;;4.20;;
19842;SDS011;10082;51.038;6.992;2022-09-28T15:30:57;0.70;;;0.70;;
19842;SDS011;10082;51.038;6.992;2022-09-28T15:33:26;1.02;;;0.80;;
19842;SDS011;10082;51.038;6.992;2022-09-28T15:36:14;1.00;;;0.93;;
19842;SDS011;10082;51.038;6.992;2022-09-28T15:38:50;0.65;;;0.65;;
19842;SDS011;10082;51.038;6.992;2022-09-28T15:41:21;0.95;;;0.80;;
19842;SDS011;10082;51.038;6.992;2022-09-28T15:44:03;0.52;;;0.47;;
19842;SDS011;10082;51.038;6.992;2022-09-28T15:46:45;1.17;;;1.02;;
19842;SDS011;10082;51.038;6.992;2022-09-28T15:49:19;0.50;;;0.50;;
19842;SDS011;10082;51.038;6.992;2022-09-28T15:51:51;1.30;;;0.80;;
19842;SDS011;10082;51.038;6.992;2022-09-28T15:54:21;0.80;;;0.70;;
19842;SDS011;10082;51.038;6.992;2022-09-28T15:56:53;0.60;;;0.60;;
19842;SDS011;10082;51.038;6.992;2022-09-28T15:59:28;0.68;;;0.65;;
19842;SDS011;10082;51.038;6.992;2022-09-28T16:02:00;0.65;;;0.65;;
19842;SDS011;10082;51.038;6.992;2022-09-28T16:04:36;0.98;;;0.80;;